createdAt,value
2023-10-06T00:00:41.699Z,101510.66
2023-10-06T00:03:14.008Z,101511.72
2023-10-06T00:05:42.531Z,101509.13
2023-10-06T00:08:12.616Z,101503.03
2023-10-06T00:10:45.890Z,101496.19
2023-10-06T00:13:20.205Z,101499.34
2023-10-06T00:15:51.062Z,101501.06
2023-10-06T00:18:21.491Z,101512.47
2023-10-06T00:20:51.027Z,101514.28
2023-10-06T00:23:23.006Z,101505.25
2023-10-06T00:25:56.281Z,101499.34
2023-10-06T00:28:27.973Z,101496.19
2023-10-06T00:30:58.046Z,101502.34
2023-10-06T00:33:29.172Z,101498.16
2023-10-06T00:35:58.257Z,101497.13
2023-10-06T00:38:26.222Z,101498.38
2023-10-06T00:40:56.318Z,101504.59
2023-10-06T00:43:36.006Z,101503.00
2023-10-06T00:46:08.212Z,101503.94
2023-10-06T00:48:39.798Z,101505.06
2023-10-06T00:51:13.550Z,101504.13
2023-10-06T00:53:42.534Z,101509.25
2023-10-06T00:56:16.430Z,101504.19
2023-10-06T00:58:45.003Z,101503.94
2023-10-06T01:01:14.414Z,101501.47
2023-10-06T01:03:43.878Z,101501.06
2023-10-06T01:06:16.451Z,101492.22
2023-10-06T01:08:47.103Z,101492.13
2023-10-06T01:11:18.672Z,101494.22
2023-10-06T01:13:56.924Z,101492.81
2023-10-06T01:16:31.160Z,101493.03
2023-10-06T01:19:15.280Z,101495.06
2023-10-06T01:21:46.705Z,101501.66
2023-10-06T01:24:16.536Z,101498.56
2023-10-06T01:26:44.808Z,101503.38
2023-10-06T01:29:14.953Z,101500.53
2023-10-06T01:31:43.269Z,101495.56
2023-10-06T01:34:12.438Z,101507.13
2023-10-06T01:36:40.376Z,101510.38
2023-10-06T01:39:18.025Z,101510.50
2023-10-06T01:41:49.977Z,101510.97
2023-10-06T01:44:18.626Z,101511.66
2023-10-06T01:46:54.296Z,101506.63
2023-10-06T01:49:23.144Z,101510.34
2023-10-06T01:52:02.924Z,101515.59
2023-10-06T01:54:36.664Z,101510.34
2023-10-06T01:57:08.269Z,101509.59
2023-10-06T01:59:36.711Z,101496.50
2023-10-06T02:02:08.909Z,101499.13
2023-10-06T02:04:41.040Z,101493.75
2023-10-06T02:07:11.772Z,101492.78
2023-10-06T02:09:40.230Z,101490.91
2023-10-06T02:12:10.220Z,101487.34
2023-10-06T02:14:38.236Z,101485.69
2023-10-06T02:17:07.627Z,101496.22
2023-10-06T02:19:38.170Z,101488.59
2023-10-06T02:22:07.645Z,101488.94
2023-10-06T02:24:36.083Z,101476.06
2023-10-06T02:27:05.527Z,101475.50
2023-10-06T02:29:34.785Z,101472.69
2023-10-06T02:32:07.797Z,101485.28
2023-10-06T02:34:39.560Z,101475.41
2023-10-06T02:37:08.861Z,101467.38
2023-10-06T02:39:39.557Z,101465.06
2023-10-06T02:42:10.941Z,101464.16
2023-10-06T02:44:42.432Z,101473.34
2023-10-06T02:47:12.170Z,101482.38
2023-10-06T02:49:42.469Z,101480.41
2023-10-06T02:52:17.039Z,101472.63
2023-10-06T02:54:50.991Z,101470.75
2023-10-06T02:57:21.631Z,101471.84
2023-10-06T02:59:50.991Z,101464.59
2023-10-06T03:02:18.918Z,101469.78
2023-10-06T03:04:50.415Z,101461.16
2023-10-06T03:07:20.130Z,101462.16
2023-10-06T03:09:48.681Z,101468.31
2023-10-06T03:12:21.486Z,101474.56
2023-10-06T03:14:50.527Z,101478.16
2023-10-06T03:17:22.120Z,101476.59
2023-10-06T03:20:09.506Z,101470.50
2023-10-06T03:22:41.642Z,101467.84
2023-10-06T03:25:18.316Z,101469.66
2023-10-06T03:27:49.770Z,101462.81
2023-10-06T03:30:28.006Z,101470.69
2023-10-06T03:32:55.996Z,101467.25
2023-10-06T03:35:24.913Z,101465.53
2023-10-06T03:38:09.162Z,101473.34
2023-10-06T03:40:47.365Z,101461.38
2023-10-06T03:43:15.565Z,101464.34
2023-10-06T03:45:48.690Z,101470.34
2023-10-06T03:48:16.730Z,101473.09
2023-10-06T03:50:46.034Z,101471.53
2023-10-06T03:53:15.982Z,101475.84
2023-10-06T03:55:46.361Z,101470.34
2023-10-06T03:58:16.565Z,101475.91
2023-10-06T04:00:49.703Z,101473.88
2023-10-06T04:03:19.533Z,101470.81
2023-10-06T04:05:49.845Z,101467.22
2023-10-06T04:08:20.458Z,101470.44
2023-10-06T04:10:52.843Z,101468.56
2023-10-06T04:13:21.458Z,101465.03
2023-10-06T04:15:51.885Z,101456.94
2023-10-06T04:18:23.239Z,101457.97
2023-10-06T04:20:52.150Z,101458.75
2023-10-06T04:23:24.038Z,101455.31
2023-10-06T04:25:56.127Z,101456.25
2023-10-06T04:28:26.642Z,101456.09
2023-10-06T04:30:59.318Z,101452.56
2023-10-06T04:33:29.718Z,101452.66
2023-10-06T04:36:00.953Z,101454.38
2023-10-06T04:38:30.760Z,101450.22
2023-10-06T04:40:59.021Z,101457.09
2023-10-06T04:43:27.582Z,101464.34
2023-10-06T04:45:57.477Z,101461.72
2023-10-06T04:48:25.536Z,101463.47
2023-10-06T04:50:53.462Z,101464.44
2023-10-06T04:53:22.153Z,101467.22
2023-10-06T04:55:50.153Z,101464.66
2023-10-06T04:58:19.891Z,101463.78
2023-10-06T05:00:54.194Z,101462.81
2023-10-06T05:03:23.697Z,101460.22
2023-10-06T05:05:52.100Z,101463.00
2023-10-06T05:08:20.263Z,101465.66
2023-10-06T05:10:48.233Z,101469.38
2023-10-06T05:13:17.665Z,101459.81
2023-10-06T05:15:45.953Z,101459.75
2023-10-06T05:18:17.127Z,101466.75
2023-10-06T05:20:47.704Z,101471.25
2023-10-06T05:23:16.798Z,101469.09
2023-10-06T05:25:46.422Z,101476.06
2023-10-06T05:28:18.139Z,101475.53
2023-10-06T05:30:46.874Z,101477.22
2023-10-06T05:33:15.766Z,101476.25
2023-10-06T05:35:45.140Z,101476.94
2023-10-06T05:38:15.426Z,101488.25
2023-10-06T05:40:43.919Z,101487.88
2023-10-06T05:43:13.190Z,101489.59
2023-10-06T05:45:42.947Z,101481.66
2023-10-06T05:48:12.463Z,101489.75
2023-10-06T05:50:41.888Z,101493.88
2023-10-06T05:53:13.873Z,101503.41
2023-10-06T05:55:43.848Z,101503.53
2023-10-06T05:58:15.665Z,101498.34
2023-10-06T06:00:52.126Z,101506.97
2023-10-06T06:03:21.866Z,101492.81
2023-10-06T06:05:50.271Z,101501.69
2023-10-06T06:08:18.169Z,101504.19
2023-10-06T06:10:47.488Z,101510.41
2023-10-06T06:13:15.906Z,101510.34
2023-10-06T06:15:43.843Z,101513.78
2023-10-06T06:18:11.735Z,101507.38
2023-10-06T06:20:39.882Z,101510.69
2023-10-06T06:23:10.128Z,101507.84
2023-10-06T06:25:38.796Z,101495.50
2023-10-06T06:28:09.332Z,101494.47
2023-10-06T06:30:38.454Z,101495.97
2023-10-06T06:33:06.556Z,101495.66
2023-10-06T06:35:36.280Z,101495.47
2023-10-06T06:38:06.177Z,101502.25
2023-10-06T06:40:35.826Z,101507.25
2023-10-06T06:43:03.688Z,101515.28
2023-10-06T06:45:37.461Z,101520.41
2023-10-06T06:48:11.050Z,101519.94
2023-10-06T06:50:38.841Z,101520.50
2023-10-06T06:53:06.669Z,101523.88
2023-10-06T06:55:35.346Z,101528.22
2023-10-06T06:58:07.649Z,101526.53
2023-10-06T07:00:37.329Z,101526.94
2023-10-06T07:03:05.819Z,101526.25
2023-10-06T07:05:35.350Z,101527.06
2023-10-06T07:08:05.236Z,101518.53
2023-10-06T07:10:33.714Z,101520.06
2023-10-06T07:13:02.133Z,101509.28
2023-10-06T07:15:30.582Z,101508.84
2023-10-06T07:18:00.732Z,101510.63
2023-10-06T07:20:31.292Z,101511.88
2023-10-06T07:23:02.732Z,101512.66
2023-10-06T07:25:31.127Z,101521.72
2023-10-06T07:28:00.573Z,101507.41
2023-10-06T07:30:30.547Z,101504.38
2023-10-06T07:33:00.355Z,101495.97
2023-10-06T07:35:32.186Z,101492.38
2023-10-06T07:38:00.586Z,101494.53
2023-10-06T07:40:29.188Z,101508.22
2023-10-06T07:42:58.022Z,101518.34
2023-10-06T07:45:28.150Z,101523.09
2023-10-06T07:47:56.258Z,101519.00
2023-10-06T07:50:27.749Z,101525.03
2023-10-06T07:52:55.814Z,101523.09
2023-10-06T07:55:24.351Z,101519.16
2023-10-06T07:57:52.548Z,101516.81
2023-10-06T08:00:28.929Z,101523.06
2023-10-06T08:02:57.202Z,101518.72
2023-10-06T08:05:28.701Z,101515.06
2023-10-06T08:07:59.843Z,101513.63
2023-10-06T08:10:31.275Z,101512.41
2023-10-06T08:13:02.834Z,101516.25
2023-10-06T08:15:33.996Z,101520.22
2023-10-06T08:18:02.509Z,101522.88
2023-10-06T08:20:32.283Z,101521.13
2023-10-06T08:23:00.922Z,101518.53
2023-10-06T08:25:33.009Z,101522.28
2023-10-06T08:28:08.351Z,101526.19
2023-10-06T08:30:36.190Z,101530.25
2023-10-06T08:33:04.179Z,101527.31
2023-10-06T08:35:33.466Z,101526.19
2023-10-06T08:38:02.092Z,101526.59
2023-10-06T08:40:33.842Z,101522.75
2023-10-06T08:43:02.113Z,101520.41
2023-10-06T08:45:32.166Z,101528.31
2023-10-06T08:48:04.335Z,101519.63
2023-10-06T08:50:35.015Z,101516.66
2023-10-06T08:53:05.937Z,101514.88
2023-10-06T08:55:34.809Z,101511.91
2023-10-06T08:58:04.885Z,101525.97
2023-10-06T09:00:36.602Z,101523.84
2023-10-06T09:03:09.141Z,101529.69
2023-10-06T09:05:40.726Z,101518.91
2023-10-06T09:08:10.308Z,101526.84
2023-10-06T09:10:41.573Z,101511.25
2023-10-06T09:13:12.466Z,101515.09
2023-10-06T09:15:42.564Z,101509.97
2023-10-06T09:18:22.901Z,101503.63
2023-10-06T09:20:53.112Z,101502.44
2023-10-06T09:23:34.624Z,101504.44
2023-10-06T09:26:03.564Z,101512.78
2023-10-06T09:28:32.437Z,101506.09
2023-10-06T09:31:02.823Z,101490.63
2023-10-06T09:33:33.745Z,101490.03
2023-10-06T09:36:08.989Z,101487.06
2023-10-06T09:38:37.883Z,101481.88
2023-10-06T09:41:08.325Z,101483.38
2023-10-06T09:43:39.605Z,101489.41
2023-10-06T09:46:10.217Z,101488.44
2023-10-06T09:48:39.043Z,101487.47
2023-10-06T09:51:10.370Z,101482.06
2023-10-06T09:53:39.727Z,101479.22
2023-10-06T09:56:11.142Z,101474.81
2023-10-06T09:58:41.364Z,101471.88
2023-10-06T10:01:11.709Z,101465.19
2023-10-06T10:03:40.255Z,101456.13
2023-10-06T10:06:09.769Z,101453.13
2023-10-06T10:08:42.228Z,101455.78
2023-10-06T10:11:15.446Z,101453.63
2023-10-06T10:14:16.288Z,101456.41
2023-10-06T10:16:57.904Z,101459.91
2023-10-06T10:19:29.478Z,101458.72
2023-10-06T10:22:00.466Z,101450.63
2023-10-06T10:27:00.565Z,101454.03
2023-10-06T10:29:32.632Z,101452.41
2023-10-06T10:32:05.738Z,101456.13
2023-10-06T10:34:35.244Z,101458.50
2023-10-06T10:37:21.680Z,101442.06
2023-10-06T10:39:51.168Z,101447.63
2023-10-06T10:42:20.041Z,101454.22
2023-10-06T10:44:49.776Z,101448.28
2023-10-06T10:47:18.489Z,101448.94
2023-10-06T10:49:47.266Z,101442.50
2023-10-06T10:52:16.903Z,101447.69
2023-10-06T10:54:46.152Z,101440.19
2023-10-06T10:57:19.899Z,101434.28
2023-10-06T11:00:21.355Z,101439.56
2023-10-06T11:03:05.848Z,101435.59
2023-10-06T11:05:34.095Z,101421.22
2023-10-06T11:08:05.161Z,101424.69
2023-10-06T11:10:35.038Z,101416.16
2023-10-06T11:13:21.126Z,101417.34
2023-10-06T11:15:50.434Z,101413.13
2023-10-06T11:18:19.693Z,101420.69
2023-10-06T11:20:49.480Z,101416.91
2023-10-06T11:23:18.733Z,101411.78
2023-10-06T11:25:52.130Z,101403.72
2023-10-06T11:28:21.084Z,101401.81
2023-10-06T11:30:50.034Z,101398.09
2023-10-06T11:33:21.227Z,101400.88
2023-10-06T11:35:49.673Z,101391.69
2023-10-06T11:38:17.835Z,101380.88
2023-10-06T11:40:46.034Z,101393.06
2023-10-06T11:43:18.029Z,101380.69
2023-10-06T11:45:46.298Z,101376.91
2023-10-06T11:48:30.311Z,101368.38
2023-10-06T11:51:02.676Z,101367.63
2023-10-06T11:53:30.835Z,101376.63
2023-10-06T11:56:11.341Z,101368.88
2023-10-06T11:58:42.467Z,101369.13
2023-10-06T12:01:29.789Z,101359.75
2023-10-06T12:04:01.845Z,101343.53
2023-10-06T12:06:39.872Z,101351.59
2023-10-06T12:09:09.470Z,101348.59
2023-10-06T12:11:37.724Z,101348.56
2023-10-06T12:14:07.001Z,101345.56
2023-10-06T12:16:37.417Z,101332.09
2023-10-06T12:19:07.062Z,101337.25
2023-10-06T12:21:36.406Z,101333.50
2023-10-06T12:24:04.881Z,101330.59
2023-10-06T12:26:33.303Z,101331.50
2023-10-06T12:29:03.338Z,101318.91
2023-10-06T12:31:32.724Z,101316.78
2023-10-06T12:34:05.037Z,101311.44
2023-10-06T12:36:36.047Z,101314.06
2023-10-06T12:39:06.140Z,101301.78
2023-10-06T12:41:34.003Z,101302.97
2023-10-06T12:44:06.788Z,101307.03
2023-10-06T12:46:38.444Z,101306.38
2023-10-06T12:49:08.335Z,101297.38
2023-10-06T12:51:36.773Z,101290.78
2023-10-06T12:54:05.345Z,101288.19
2023-10-06T12:56:33.578Z,101289.72
2023-10-06T12:59:01.393Z,101278.91
2023-10-06T13:01:32.046Z,101282.91
2023-10-06T13:04:01.990Z,101280.84
2023-10-06T13:06:31.556Z,101275.09
2023-10-06T13:09:03.035Z,101273.59
2023-10-06T13:11:31.316Z,101277.09
2023-10-06T13:13:59.340Z,101276.44
2023-10-06T13:16:27.324Z,101279.53
2023-10-06T13:18:55.252Z,101270.25
2023-10-06T13:21:24.734Z,101270.31
2023-10-06T13:23:52.999Z,101263.50
2023-10-06T13:26:36.153Z,101269.69
2023-10-06T13:29:09.394Z,101262.19
2023-10-06T13:31:38.220Z,101272.88
2023-10-06T13:34:08.735Z,101272.13
2023-10-06T13:36:38.260Z,101261.72
2023-10-06T13:39:10.782Z,101255.78
2023-10-06T13:41:43.063Z,101251.75
2023-10-06T13:44:11.622Z,101252.13
2023-10-06T13:46:41.727Z,101247.16
2023-10-06T13:49:09.957Z,101237.03
2023-10-06T13:51:39.326Z,101235.97
2023-10-06T13:54:08.000Z,101238.47
2023-10-06T13:56:36.675Z,101250.44
2023-10-06T13:59:05.988Z,101249.75
2023-10-06T14:01:34.643Z,101250.97
2023-10-06T14:04:04.454Z,101249.84
2023-10-06T14:06:32.466Z,101256.78
2023-10-06T14:09:01.639Z,101249.97
2023-10-06T14:11:31.539Z,101245.28
2023-10-06T14:14:00.105Z,101238.44
2023-10-06T14:16:28.783Z,101237.00
2023-10-06T14:18:57.881Z,101236.03
2023-10-06T14:21:25.795Z,101243.75
2023-10-06T14:23:56.103Z,101243.91
2023-10-06T14:26:25.465Z,101233.16
2023-10-06T14:28:53.581Z,101229.66
2023-10-06T14:31:26.944Z,101231.00
2023-10-06T14:34:20.098Z,101226.41
2023-10-06T14:36:48.130Z,101232.41
2023-10-06T14:39:33.889Z,101227.94
2023-10-06T14:42:20.367Z,101220.56
2023-10-06T14:45:05.687Z,101215.41
2023-10-06T14:47:34.272Z,101218.34
2023-10-06T14:50:02.477Z,101211.47
2023-10-06T14:52:32.649Z,101207.03
2023-10-06T14:55:01.739Z,101209.81
2023-10-06T14:57:31.052Z,101204.59
2023-10-06T14:59:59.020Z,101210.38
2023-10-06T15:02:27.046Z,101205.66
2023-10-06T15:04:55.448Z,101196.19
2023-10-06T15:07:23.278Z,101197.06
2023-10-06T15:09:52.543Z,101204.00
2023-10-06T15:12:22.375Z,101204.50
2023-10-06T15:14:52.134Z,101204.19
2023-10-06T15:17:20.815Z,101201.31
2023-10-06T15:19:49.094Z,101197.41
2023-10-06T15:22:17.033Z,101199.94
2023-10-06T15:24:44.903Z,101201.13
2023-10-06T15:27:13.430Z,101202.66
2023-10-06T15:29:42.989Z,101212.66
2023-10-06T15:32:13.249Z,101202.66
2023-10-06T15:34:41.696Z,101207.22
2023-10-06T15:37:09.727Z,101206.72
2023-10-06T15:39:37.740Z,101206.22
2023-10-06T15:42:06.018Z,101205.19
2023-10-06T15:44:34.191Z,101197.38
2023-10-06T15:47:02.942Z,101198.56
2023-10-06T15:49:33.489Z,101193.16
2023-10-06T15:52:01.413Z,101197.72
2023-10-06T15:54:29.352Z,101196.38
2023-10-06T15:56:58.544Z,101199.25
2023-10-06T15:59:31.016Z,101194.00
2023-10-06T16:02:00.629Z,101197.69
2023-10-06T16:04:28.937Z,101186.88
2023-10-06T16:06:59.933Z,101188.72
2023-10-06T16:09:28.073Z,101188.56
2023-10-06T16:11:56.213Z,101190.75
2023-10-06T16:14:24.248Z,101186.66
2023-10-06T16:16:53.398Z,101184.09
2023-10-06T16:19:21.670Z,101198.38
2023-10-06T16:21:51.275Z,101184.47
2023-10-06T16:24:20.517Z,101190.31
2023-10-06T16:26:48.408Z,101190.44
2023-10-06T16:29:17.535Z,101186.84
2023-10-06T16:31:46.805Z,101186.97
2023-10-06T16:34:14.806Z,101195.47
2023-10-06T16:36:43.458Z,101188.78
2023-10-06T16:39:20.278Z,101186.63
2023-10-06T16:41:50.616Z,101194.47
2023-10-06T16:44:21.439Z,101195.03
2023-10-06T16:46:50.269Z,101198.00
2023-10-06T16:49:18.286Z,101199.47
2023-10-06T16:51:47.629Z,101206.66
2023-10-06T16:54:16.535Z,101206.16
2023-10-06T16:56:44.864Z,101206.22
2023-10-06T16:59:15.481Z,101204.59
2023-10-06T17:01:44.324Z,101201.09
2023-10-06T17:04:16.044Z,101198.81
2023-10-06T17:06:44.335Z,101198.34
2023-10-06T17:09:15.193Z,101206.38
2023-10-06T17:11:44.518Z,101212.88
2023-10-06T17:14:14.139Z,101206.53
2023-10-06T17:16:42.995Z,101198.50
2023-10-06T17:19:12.535Z,101205.75
2023-10-06T17:21:40.255Z,101197.69
2023-10-06T17:24:11.821Z,101199.56
2023-10-06T17:26:39.735Z,101202.13
2023-10-06T17:29:08.351Z,101209.34
2023-10-06T17:31:38.530Z,101218.00
2023-10-06T17:34:06.745Z,101218.97
2023-10-06T17:36:34.517Z,101216.13
2023-10-06T17:39:04.112Z,101216.84
2023-10-06T17:41:32.048Z,101217.69
2023-10-06T17:43:59.868Z,101215.84
2023-10-06T17:46:27.658Z,101225.03
2023-10-06T17:48:58.199Z,101215.25
2023-10-06T17:51:26.582Z,101214.25
2023-10-06T17:53:54.535Z,101224.59
2023-10-06T17:56:22.592Z,101227.50
2023-10-06T17:58:51.236Z,101223.81
2023-10-06T18:01:20.004Z,101228.69
2023-10-06T18:03:49.004Z,101225.41
2023-10-06T18:06:18.823Z,101230.47
2023-10-06T18:08:46.926Z,101220.97
2023-10-06T18:11:15.531Z,101227.13
2023-10-06T18:13:43.613Z,101218.25
2023-10-06T18:16:11.784Z,101224.44
2023-10-06T18:18:41.368Z,101225.41
2023-10-06T18:21:09.318Z,101236.66
2023-10-06T18:23:38.545Z,101223.38
2023-10-06T18:26:12.200Z,101227.59
2023-10-06T18:28:40.731Z,101227.13
2023-10-06T18:31:08.714Z,101224.72
2023-10-06T18:33:37.072Z,101235.56
2023-10-06T18:36:08.347Z,101227.91
2023-10-06T18:38:36.166Z,101228.56
2023-10-06T18:41:07.936Z,101234.31
2023-10-06T18:43:35.745Z,101239.69
2023-10-06T18:46:03.842Z,101237.78
2023-10-06T18:48:31.854Z,101229.28
2023-10-06T18:51:01.338Z,101239.66
2023-10-06T18:53:30.386Z,101238.06
2023-10-06T18:55:59.789Z,101234.56
2023-10-06T18:58:30.598Z,101235.16
2023-10-06T19:00:59.390Z,101240.06
2023-10-06T19:03:28.302Z,101238.50
2023-10-06T19:06:04.165Z,101244.22
2023-10-06T19:08:36.924Z,101242.78
2023-10-06T19:11:08.780Z,101244.50
2023-10-06T19:13:37.967Z,101237.31
2023-10-06T19:16:07.511Z,101240.09
2023-10-06T19:18:35.513Z,101242.91
2023-10-06T19:21:03.393Z,101250.09
2023-10-06T19:23:32.015Z,101250.69
2023-10-06T19:26:04.435Z,101249.25
2023-10-06T19:28:32.463Z,101248.66
2023-10-06T19:31:01.879Z,101251.72
2023-10-06T19:33:29.896Z,101254.13
2023-10-06T19:35:58.266Z,101249.28
2023-10-06T19:38:26.649Z,101251.22
2023-10-06T19:40:54.453Z,101248.44
2023-10-06T19:43:22.571Z,101252.69
2023-10-06T19:45:52.606Z,101245.97
2023-10-06T19:48:23.038Z,101235.72
2023-10-06T19:50:50.926Z,101249.84
2023-10-06T19:53:19.332Z,101246.19
2023-10-06T19:55:48.337Z,101250.94
2023-10-06T19:58:17.915Z,101248.41
2023-10-06T20:00:46.358Z,101248.41
2023-10-06T20:03:14.339Z,101242.69
2023-10-06T20:05:43.825Z,101241.84
2023-10-06T20:08:11.669Z,101228.09
2023-10-06T20:10:39.661Z,101234.53
2023-10-06T20:13:08.551Z,101230.41
2023-10-06T20:15:37.631Z,101236.03
2023-10-06T20:18:07.364Z,101235.31
2023-10-06T20:20:35.622Z,101240.69
2023-10-06T20:23:05.719Z,101235.94
2023-10-06T20:25:34.161Z,101232.13
2023-10-06T20:28:03.978Z,101234.09
2023-10-06T20:30:32.269Z,101233.25
2023-10-06T20:33:00.839Z,101235.78
2023-10-06T20:35:29.025Z,101234.09
2023-10-06T20:37:57.220Z,101233.47
2023-10-06T20:40:27.048Z,101236.41
2023-10-06T20:42:56.755Z,101232.16
2023-10-06T20:45:27.740Z,101235.09
2023-10-06T20:47:56.309Z,101233.66
2023-10-06T20:50:24.309Z,101233.50
2023-10-06T20:52:53.064Z,101239.84
2023-10-06T20:55:21.844Z,101240.69
2023-10-06T20:57:51.215Z,101244.34
2023-10-06T21:00:22.628Z,101245.34
2023-10-06T21:02:50.996Z,101245.97
2023-10-06T21:05:20.672Z,101243.78
2023-10-06T21:07:49.343Z,101243.16
2023-10-06T21:10:18.622Z,101240.13
2023-10-06T21:12:46.709Z,101237.94
2023-10-06T21:15:16.272Z,101236.44
2023-10-06T21:17:44.655Z,101239.63
2023-10-06T21:20:14.405Z,101237.66
2023-10-06T21:22:42.246Z,101244.97
2023-10-06T21:25:14.505Z,101242.56
2023-10-06T21:27:43.221Z,101247.91
2023-10-06T21:30:16.917Z,101244.25
2023-10-06T21:32:47.066Z,101247.03
2023-10-06T21:35:15.688Z,101239.88
2023-10-06T21:37:45.593Z,101248.75
2023-10-06T21:40:14.203Z,101251.91
2023-10-06T21:42:42.326Z,101250.75
2023-10-06T21:45:11.091Z,101251.13
2023-10-06T21:47:39.145Z,101257.69
2023-10-06T21:50:10.275Z,101254.84
2023-10-06T21:52:38.472Z,101253.75
2023-10-06T21:55:07.243Z,101253.34
2023-10-06T21:57:36.232Z,101251.16
2023-10-06T22:00:12.461Z,101251.25
2023-10-06T22:02:40.682Z,101261.66
2023-10-06T22:05:11.550Z,101265.00
2023-10-06T22:07:41.067Z,101265.56
2023-10-06T22:10:12.784Z,101264.09
2023-10-06T22:12:40.809Z,101263.91
2023-10-06T22:15:10.178Z,101271.66
2023-10-06T22:17:38.388Z,101264.63
2023-10-06T22:20:09.814Z,101266.47
2023-10-06T22:22:39.856Z,101265.72
2023-10-06T22:25:11.392Z,101267.66
2023-10-06T22:27:41.897Z,101265.53
2023-10-06T22:30:12.602Z,101269.38
2023-10-06T22:32:41.605Z,101264.50
2023-10-06T22:35:12.042Z,101274.41
2023-10-06T22:37:41.717Z,101263.81
2023-10-06T22:40:17.626Z,101258.63
2023-10-06T22:42:48.640Z,101256.34
2023-10-06T22:45:17.468Z,101265.56
2023-10-06T22:47:49.336Z,101264.50
2023-10-06T22:50:18.037Z,101260.56
2023-10-06T22:52:48.138Z,101261.72
2023-10-06T22:55:18.067Z,101270.81
2023-10-06T22:57:46.336Z,101276.59
2023-10-06T23:00:18.359Z,101265.16
2023-10-06T23:02:48.243Z,101260.03
2023-10-06T23:05:17.186Z,101257.25
2023-10-06T23:07:45.962Z,101256.19
2023-10-06T23:10:17.174Z,101256.19
2023-10-06T23:12:45.601Z,101257.16
2023-10-06T23:15:14.068Z,101253.00
2023-10-06T23:17:42.582Z,101239.22
2023-10-06T23:20:24.702Z,101240.31
2023-10-06T23:22:56.026Z,101230.78
2023-10-06T23:25:26.036Z,101215.97
2023-10-06T23:27:54.130Z,101214.44
2023-10-06T23:30:22.432Z,101221.16
2023-10-06T23:32:51.378Z,101231.84
2023-10-06T23:35:19.633Z,101221.06
2023-10-06T23:37:51.204Z,101212.91
2023-10-06T23:40:22.795Z,101202.88
2023-10-06T23:42:53.716Z,101203.84
2023-10-06T23:45:21.707Z,101204.59
2023-10-06T23:47:50.563Z,101204.50
2023-10-06T23:50:21.548Z,101197.22
2023-10-06T23:52:52.764Z,101203.84
2023-10-06T23:55:23.222Z,101214.09
2023-10-06T23:57:55.208Z,101224.56
